createdAt,value
2023-03-16T00:00:09.056Z,2.1
2023-03-16T00:02:03.815Z,2.0
2023-03-16T00:04:03.495Z,1.9
2023-03-16T00:06:02.940Z,1.8
2023-03-16T00:08:03.147Z,1.9
2023-03-16T00:10:03.822Z,2.1
2023-03-16T00:12:04.355Z,1.9
2023-03-16T00:14:03.994Z,2.0
2023-03-16T00:16:04.183Z,2.3
2023-03-16T00:18:03.113Z,2.0
2023-03-16T00:20:05.806Z,1.7
2023-03-16T00:22:03.671Z,2.0
2023-03-16T00:24:03.746Z,1.7
2023-03-16T00:26:06.149Z,2.1
2023-03-16T00:28:03.295Z,1.9
2023-03-16T00:30:03.981Z,2.0
2023-03-16T00:32:03.288Z,1.9
2023-03-16T00:34:03.620Z,1.9
2023-03-16T00:36:04.897Z,1.8
2023-03-16T00:38:03.779Z,1.9
2023-03-16T00:40:03.888Z,1.7
2023-03-16T00:42:04.050Z,1.9
2023-03-16T00:44:02.865Z,2.1
2023-03-16T00:46:06.219Z,2.1
2023-03-16T00:48:03.621Z,2.2
2023-03-16T00:50:03.076Z,2.0
2023-03-16T00:52:04.876Z,2.0
2023-03-16T00:54:05.139Z,1.9
2023-03-16T00:56:04.499Z,2.2
2023-03-16T00:58:04.668Z,1.6
2023-03-16T01:00:12.258Z,1.7
2023-03-16T01:02:03.043Z,2.0
2023-03-16T01:04:03.224Z,1.8
2023-03-16T01:06:05.976Z,1.7
2023-03-16T01:08:03.884Z,2.0
2023-03-16T01:10:03.296Z,2.0
2023-03-16T01:12:03.072Z,2.2
2023-03-16T01:14:03.979Z,2.0
2023-03-16T01:16:04.133Z,1.7
2023-03-16T01:18:02.895Z,1.9
2023-03-16T01:20:07.712Z,1.7
2023-03-16T01:22:04.341Z,1.6
2023-03-16T01:24:03.803Z,1.8
2023-03-16T01:26:04.141Z,1.7
2023-03-16T01:28:03.225Z,1.5
2023-03-16T01:30:03.116Z,1.5
2023-03-16T01:32:04.087Z,1.7
2023-03-16T01:34:03.787Z,1.6
2023-03-16T01:36:05.804Z,1.6
2023-03-16T01:38:04.218Z,1.6
2023-03-16T01:40:05.830Z,1.6
2023-03-16T01:42:04.052Z,1.5
2023-03-16T01:44:03.128Z,1.6
2023-03-16T01:46:17.852Z,1.5
2023-03-16T01:48:03.998Z,1.4
2023-03-16T01:50:03.927Z,1.5
2023-03-16T01:52:07.406Z,1.9
2023-03-16T01:54:07.875Z,3.5
2023-03-16T01:56:08.241Z,5.0
2023-03-16T01:58:03.750Z,8.3
2023-03-16T02:00:10.253Z,13.8
2023-03-16T02:02:04.033Z,17.1
2023-03-16T02:04:10.191Z,14.8
2023-03-16T02:06:10.153Z,9.5
2023-03-16T02:08:06.180Z,6.4
2023-03-16T02:10:05.862Z,5.4
2023-03-16T02:12:03.138Z,4.8
2023-03-16T02:14:09.935Z,4.1
2023-03-16T02:16:05.915Z,4.1
2023-03-16T02:18:03.362Z,3.0
2023-03-16T02:20:15.893Z,3.6
2023-03-16T02:22:06.897Z,2.8
2023-03-16T02:24:04.182Z,2.4
2023-03-16T02:26:11.338Z,2.6
2023-03-16T02:28:10.929Z,2.1
2023-03-16T02:30:06.721Z,2.2
2023-03-16T02:32:05.130Z,2.0
2023-03-16T02:34:04.486Z,2.4
2023-03-16T02:36:03.304Z,2.6
2023-03-16T02:38:03.352Z,2.1
2023-03-16T02:40:13.380Z,2.0
2023-03-16T02:42:03.440Z,2.0
2023-03-16T02:44:14.323Z,1.9
2023-03-16T02:46:04.744Z,2.0
2023-03-16T02:48:09.739Z,1.9
2023-03-16T02:50:06.321Z,2.3
2023-03-16T02:52:04.004Z,2.0
2023-03-16T02:54:03.082Z,2.1
2023-03-16T02:56:04.378Z,1.8
2023-03-16T02:58:03.646Z,1.8
2023-03-16T03:00:08.574Z,1.8
2023-03-16T03:02:02.936Z,1.9
2023-03-16T03:04:04.743Z,1.9
2023-03-16T03:06:03.095Z,1.9
2023-03-16T03:08:03.996Z,1.7
2023-03-16T03:10:05.602Z,1.8
2023-03-16T03:12:04.322Z,1.8
2023-03-16T03:14:03.651Z,2.2
2023-03-16T03:16:02.970Z,1.8
2023-03-16T03:18:03.956Z,2.0
2023-03-16T03:20:12.150Z,2.2
2023-03-16T03:22:05.928Z,2.2
2023-03-16T03:24:03.476Z,3.5
2023-03-16T03:26:04.430Z,3.0
2023-03-16T03:28:05.238Z,2.5
2023-03-16T03:30:03.375Z,2.5
2023-03-16T03:32:04.841Z,2.5
2023-03-16T03:34:06.110Z,3.1
2023-03-16T03:36:03.715Z,3.0
2023-03-16T03:38:07.726Z,2.8
2023-03-16T03:40:10.044Z,2.8
2023-03-16T03:42:03.849Z,2.8
2023-03-16T03:44:04.399Z,2.9
2023-03-16T03:46:05.227Z,2.4
2023-03-16T03:48:02.886Z,2.3
2023-03-16T03:50:02.873Z,2.4
2023-03-16T03:52:04.662Z,3.1
2023-03-16T03:54:03.390Z,2.8
2023-03-16T03:56:02.983Z,2.1
2023-03-16T03:58:03.666Z,2.3
2023-03-16T04:00:07.561Z,2.2
2023-03-16T04:02:03.007Z,2.0
2023-03-16T04:04:03.800Z,2.1
2023-03-16T04:06:03.591Z,2.0
2023-03-16T04:08:03.283Z,1.9
2023-03-16T04:10:03.757Z,2.3
2023-03-16T04:12:05.256Z,2.1
2023-03-16T04:14:03.438Z,2.0
2023-03-16T04:16:03.082Z,1.9
2023-03-16T04:18:03.193Z,2.0
2023-03-16T04:20:06.082Z,1.8
2023-03-16T04:22:03.033Z,2.2
2023-03-16T04:24:04.790Z,2.5
2023-03-16T04:26:05.403Z,2.3
2023-03-16T04:28:02.984Z,2.1
2023-03-16T04:30:05.124Z,2.4
2023-03-16T04:32:02.894Z,2.6
2023-03-16T04:34:03.696Z,2.3
2023-03-16T04:36:04.206Z,2.7
2023-03-16T04:38:02.906Z,2.9
2023-03-16T04:40:10.916Z,3.9
2023-03-16T04:42:03.063Z,3.4
2023-03-16T04:44:04.478Z,3.5
2023-03-16T04:46:05.732Z,3.6
2023-03-16T04:48:03.519Z,3.4
2023-03-16T04:50:02.944Z,2.8
2023-03-16T04:52:03.661Z,3.0
2023-03-16T04:54:04.709Z,3.9
2023-03-16T04:56:03.818Z,4.5
2023-03-16T04:58:03.238Z,4.2
2023-03-16T05:00:09.580Z,4.1
2023-03-16T05:02:03.990Z,4.5
2023-03-16T05:04:02.833Z,4.5
2023-03-16T05:06:03.263Z,4.9
2023-03-16T05:08:05.677Z,4.6
2023-03-16T05:10:03.347Z,4.4
2023-03-16T05:12:03.485Z,4.3
2023-03-16T05:14:03.816Z,3.8
2023-03-16T05:16:02.897Z,4.0
2023-03-16T05:18:03.041Z,6.8
2023-03-16T05:20:07.893Z,9.7
2023-03-16T05:22:03.049Z,11.1
2023-03-16T05:24:03.621Z,13.5
2023-03-16T05:26:03.089Z,15.1
2023-03-16T05:28:04.988Z,15.6
2023-03-16T05:30:03.085Z,15.0
2023-03-16T05:32:03.363Z,15.2
2023-03-16T05:34:03.642Z,15.4
2023-03-16T05:36:03.857Z,17.3
2023-03-16T05:38:03.010Z,28.1
2023-03-16T05:40:11.592Z,25.5
2023-03-16T05:42:05.478Z,23.7
2023-03-16T05:44:04.295Z,20.0
2023-03-16T05:46:03.307Z,20.9
2023-03-16T05:48:05.291Z,22.4
2023-03-16T05:50:03.137Z,22.6
2023-03-16T05:52:04.033Z,20.9
2023-03-16T05:54:03.091Z,23.0
2023-03-16T05:56:02.951Z,16.2
2023-03-16T05:58:05.605Z,17.6
2023-03-16T06:00:13.743Z,15.7
2023-03-16T06:02:03.445Z,15.5
2023-03-16T06:04:05.024Z,15.9
2023-03-16T06:06:04.024Z,15.8
2023-03-16T06:08:03.487Z,15.0
2023-03-16T06:10:04.725Z,14.5
2023-03-16T06:12:03.724Z,13.9
2023-03-16T06:14:03.924Z,12.5
2023-03-16T06:16:03.864Z,13.4
2023-03-16T06:18:03.025Z,14.7
2023-03-16T06:20:05.461Z,15.3
2023-03-16T06:22:03.113Z,16.6
2023-03-16T06:24:04.006Z,16.5
2023-03-16T06:26:03.094Z,17.4
2023-03-16T06:28:02.866Z,16.3
2023-03-16T06:30:03.962Z,16.1
2023-03-16T06:32:03.135Z,17.1
2023-03-16T06:34:03.845Z,17.2
2023-03-16T06:36:02.860Z,16.3
2023-03-16T06:38:02.975Z,16.0
2023-03-16T06:40:03.545Z,17.2
2023-03-16T06:42:04.181Z,16.8
2023-03-16T06:44:03.051Z,15.3
2023-03-16T06:46:03.267Z,15.8
2023-03-16T06:48:04.155Z,15.0
2023-03-16T06:50:04.576Z,14.2
2023-03-16T06:52:03.078Z,15.5
2023-03-16T06:54:02.924Z,15.3
2023-03-16T06:56:03.606Z,14.9
2023-03-16T06:58:03.138Z,14.2
2023-03-16T07:00:04.453Z,14.7
2023-03-16T07:02:02.997Z,14.2
2023-03-16T07:04:02.937Z,14.1
2023-03-16T07:06:03.458Z,13.9
2023-03-16T07:08:03.953Z,13.3
2023-03-16T07:10:03.996Z,13.8
2023-03-16T07:12:03.341Z,13.7
2023-03-16T07:14:03.254Z,13.3
2023-03-16T07:16:04.410Z,12.2
2023-03-16T07:18:03.068Z,12.7
2023-03-16T07:20:05.130Z,13.7
2023-03-16T07:22:03.812Z,13.2
2023-03-16T07:24:02.872Z,13.2
2023-03-16T07:26:03.573Z,13.4
2023-03-16T07:28:03.254Z,12.2
2023-03-16T07:30:04.293Z,12.9
2023-03-16T07:32:03.667Z,13.6
2023-03-16T07:34:04.511Z,13.7
2023-03-16T07:36:04.350Z,13.2
2023-03-16T07:38:02.870Z,13.8
2023-03-16T07:40:04.817Z,14.2
2023-03-16T07:42:03.001Z,14.2
2023-03-16T07:44:03.660Z,13.9
2023-03-16T07:46:03.801Z,14.1
2023-03-16T07:48:02.871Z,14.2
2023-03-16T07:50:05.170Z,15.0
2023-03-16T07:52:03.049Z,14.3
2023-03-16T07:54:03.970Z,14.4
2023-03-16T07:56:02.912Z,14.3
2023-03-16T07:58:04.615Z,13.8
2023-03-16T08:00:04.802Z,14.4
2023-03-16T08:02:03.525Z,12.9
2023-03-16T08:04:04.027Z,14.3
2023-03-16T08:06:04.123Z,13.5
2023-03-16T08:08:03.048Z,12.9
2023-03-16T08:10:03.389Z,13.9
2023-03-16T08:12:03.791Z,13.6
2023-03-16T08:14:05.026Z,13.2
2023-03-16T08:16:02.928Z,14.5
2023-03-16T08:18:02.910Z,14.2
2023-03-16T08:20:07.756Z,13.7
2023-03-16T08:22:03.703Z,13.6
2023-03-16T08:24:03.437Z,14.6
2023-03-16T08:26:03.065Z,13.3
2023-03-16T08:28:04.082Z,15.3
2023-03-16T08:30:05.444Z,14.2
2023-03-16T08:32:03.220Z,14.0
2023-03-16T08:34:03.847Z,15.0
2023-03-16T08:36:02.924Z,14.6
2023-03-16T08:38:03.297Z,14.4
2023-03-16T08:40:04.816Z,15.3
2023-03-16T08:42:03.261Z,14.0
2023-03-16T08:44:04.116Z,14.6
2023-03-16T08:46:05.004Z,15.0
2023-03-16T08:48:04.568Z,14.9
2023-03-16T08:50:05.511Z,15.6
2023-03-16T08:52:02.880Z,14.8
2023-03-16T08:54:03.377Z,14.7
2023-03-16T08:56:04.650Z,14.3
2023-03-16T08:58:03.830Z,15.3
2023-03-16T09:00:09.489Z,14.8
2023-03-16T09:02:04.245Z,16.0
2023-03-16T09:04:03.125Z,15.7
2023-03-16T09:06:06.802Z,16.3
2023-03-16T09:08:04.431Z,16.5
2023-03-16T09:10:05.147Z,16.7
2023-03-16T09:12:04.019Z,15.8
2023-03-16T09:14:03.832Z,16.0
2023-03-16T09:16:03.732Z,16.4
2023-03-16T09:18:04.057Z,17.4
2023-03-16T09:20:15.386Z,16.7
2023-03-16T09:22:03.613Z,16.7
2023-03-16T09:24:03.544Z,16.8
2023-03-16T09:26:07.013Z,16.4
2023-03-16T09:28:04.400Z,16.5
2023-03-16T09:30:04.610Z,16.5
2023-03-16T09:32:03.889Z,16.0
2023-03-16T09:34:04.485Z,15.9
2023-03-16T09:36:04.153Z,16.6
2023-03-16T09:38:06.196Z,16.1
2023-03-16T09:40:06.745Z,15.9
2023-03-16T09:42:10.007Z,16.5
2023-03-16T09:44:17.636Z,16.4
2023-03-16T09:46:10.425Z,16.4
2023-03-16T09:48:05.460Z,16.1
2023-03-16T09:50:07.577Z,16.1
2023-03-16T09:52:16.648Z,16.6
2023-03-16T09:54:07.839Z,17.0
2023-03-16T09:56:06.271Z,16.5
2023-03-16T09:58:11.787Z,17.0
2023-03-16T10:00:16.938Z,15.5
2023-03-16T10:02:22.096Z,16.7
2023-03-16T10:04:12.971Z,15.6
2023-03-16T10:06:06.288Z,15.0
2023-03-16T10:08:13.566Z,16.9
2023-03-16T10:10:17.102Z,16.7
2023-03-16T10:12:04.850Z,16.7
2023-03-16T10:14:17.162Z,16.8
2023-03-16T10:16:09.697Z,16.3
2023-03-16T10:18:13.395Z,17.3
2023-03-16T10:20:08.581Z,16.8
2023-03-16T10:22:17.130Z,17.3
2023-03-16T10:24:13.388Z,18.0
2023-03-16T10:26:13.268Z,16.6
2023-03-16T10:28:02.871Z,16.8
2023-03-16T10:30:08.398Z,18.1
2023-03-16T10:32:13.683Z,17.2
2023-03-16T10:34:06.620Z,17.4
2023-03-16T10:36:12.575Z,17.9
2023-03-16T10:38:02.918Z,16.7
2023-03-16T10:40:11.764Z,17.0
2023-03-16T10:42:03.561Z,17.2
2023-03-16T10:44:09.775Z,17.5
2023-03-16T10:46:03.234Z,17.4
2023-03-16T10:48:07.088Z,17.8
2023-03-16T10:50:12.091Z,16.0
2023-03-16T10:52:13.916Z,17.0
2023-03-16T10:54:10.656Z,16.4
2023-03-16T10:56:11.760Z,16.6
2023-03-16T10:58:03.826Z,15.9
2023-03-16T11:00:11.039Z,17.0
2023-03-16T11:02:14.304Z,17.6
2023-03-16T11:04:03.578Z,16.7
2023-03-16T11:06:05.419Z,17.0
2023-03-16T11:08:09.496Z,16.5
2023-03-16T11:10:22.185Z,16.8
2023-03-16T11:12:14.924Z,16.3
2023-03-16T11:14:11.196Z,19.8
2023-03-16T11:16:16.362Z,20.1
2023-03-16T11:18:04.440Z,28.4
2023-03-16T11:20:11.837Z,43.3
2023-03-16T11:22:08.860Z,42.7
2023-03-16T11:24:06.081Z,43.5
2023-03-16T11:26:07.947Z,35.9
2023-03-16T11:28:12.704Z,31.6
2023-03-16T11:30:13.571Z,32.9
2023-03-16T11:32:06.986Z,24.4
2023-03-16T11:34:03.090Z,36.5
2023-03-16T11:36:18.518Z,43.1
2023-03-16T11:38:12.015Z,31.6
2023-03-16T11:40:14.928Z,30.5
2023-03-16T11:42:20.378Z,25.2
2023-03-16T11:44:12.830Z,27.7
2023-03-16T11:46:11.933Z,28.3
2023-03-16T11:48:20.279Z,23.4
2023-03-16T11:50:13.891Z,19.6
2023-03-16T11:52:16.772Z,22.9
2023-03-16T11:54:14.989Z,23.8
2023-03-16T11:56:12.054Z,23.8
2023-03-16T11:58:16.746Z,23.8
2023-03-16T12:00:12.758Z,23.8
2023-03-16T12:02:22.153Z,21.8
2023-03-16T12:04:20.202Z,21.4
2023-03-16T12:06:23.525Z,21.3
2023-03-16T12:08:18.636Z,18.4
2023-03-16T12:10:10.439Z,18.4
2023-03-16T12:12:11.368Z,24.6
2023-03-16T12:14:16.643Z,25.3
2023-03-16T12:16:11.225Z,28.9
2023-03-16T12:18:10.878Z,26.0
2023-03-16T12:20:07.507Z,21.6
2023-03-16T12:22:10.335Z,21.8
2023-03-16T12:24:06.668Z,19.6
2023-03-16T12:26:03.596Z,19.8
2023-03-16T12:28:07.606Z,18.1
2023-03-16T12:30:20.022Z,19.4
2023-03-16T12:32:11.594Z,19.6
2023-03-16T12:34:10.606Z,18.4
2023-03-16T12:36:10.381Z,19.1
2023-03-16T12:38:17.228Z,20.2
2023-03-16T12:40:10.423Z,18.3
2023-03-16T12:42:17.660Z,17.6
2023-03-16T12:44:13.488Z,19.4
2023-03-16T12:46:08.009Z,18.7
2023-03-16T12:48:12.422Z,18.8
2023-03-16T12:50:07.920Z,18.5
2023-03-16T12:52:06.583Z,18.1
2023-03-16T12:54:05.687Z,17.7
2023-03-16T12:56:09.682Z,17.2
2023-03-16T12:58:07.168Z,18.1
2023-03-16T13:00:08.063Z,17.0
2023-03-16T13:02:03.700Z,17.2
2023-03-16T13:04:09.095Z,16.9
2023-03-16T13:06:03.646Z,18.3
2023-03-16T13:08:10.606Z,16.7
2023-03-16T13:10:08.493Z,16.9
2023-03-16T13:12:06.252Z,16.3
2023-03-16T13:14:10.702Z,17.4
2023-03-16T13:16:06.517Z,16.7
2023-03-16T13:18:16.534Z,16.1
2023-03-16T13:20:29.276Z,16.9
2023-03-16T13:22:06.508Z,16.1
2023-03-16T13:24:21.410Z,17.2
2023-03-16T13:26:12.549Z,17.4
2023-03-16T13:28:06.464Z,16.1
2023-03-16T13:30:18.454Z,17.0
2023-03-16T13:32:11.127Z,16.6
2023-03-16T13:34:06.488Z,16.9
2023-03-16T13:36:06.019Z,16.7
2023-03-16T13:38:05.602Z,16.4
2023-03-16T13:40:04.866Z,17.4
2023-03-16T13:42:04.889Z,16.5
2023-03-16T13:44:06.471Z,16.6
2023-03-16T13:46:15.381Z,17.3
2023-03-16T13:48:03.056Z,16.7
2023-03-16T13:50:03.034Z,17.7
2023-03-16T13:52:05.511Z,16.9
2023-03-16T13:54:15.601Z,16.5
2023-03-16T13:56:03.929Z,16.1
2023-03-16T13:58:04.410Z,16.5
2023-03-16T14:00:15.315Z,16.9
2023-03-16T14:02:02.961Z,16.4
2023-03-16T14:04:13.130Z,16.4
2023-03-16T14:06:04.217Z,16.0
2023-03-16T14:08:04.572Z,17.1
2023-03-16T14:10:04.893Z,16.3
2023-03-16T14:12:03.403Z,16.9
2023-03-16T14:14:15.508Z,17.0
2023-03-16T14:16:08.338Z,17.2
2023-03-16T14:18:15.210Z,16.8
2023-03-16T14:20:04.209Z,17.0
2023-03-16T14:22:04.883Z,16.8
2023-03-16T14:24:05.913Z,18.1
2023-03-16T14:26:05.865Z,16.5
2023-03-16T14:28:07.565Z,16.1
2023-03-16T14:30:18.251Z,16.1
2023-03-16T14:32:13.063Z,16.4
2023-03-16T14:34:04.840Z,16.2
2023-03-16T14:36:10.903Z,16.4
2023-03-16T14:38:21.252Z,16.4
2023-03-16T14:40:05.606Z,16.5
2023-03-16T14:42:06.485Z,16.3
2023-03-16T14:44:04.052Z,15.4
2023-03-16T14:46:05.854Z,16.0
2023-03-16T14:48:07.078Z,17.1
2023-03-16T14:50:08.915Z,16.3
2023-03-16T14:52:07.896Z,16.3
2023-03-16T14:54:02.907Z,16.4
2023-03-16T14:56:03.686Z,16.2
2023-03-16T14:58:02.876Z,17.1
2023-03-16T15:00:05.058Z,17.4
2023-03-16T15:02:07.743Z,16.8
2023-03-16T15:04:04.585Z,16.8
2023-03-16T15:06:04.058Z,17.2
2023-03-16T15:08:03.861Z,17.3
2023-03-16T15:10:09.389Z,17.4
2023-03-16T15:12:03.118Z,16.6
2023-03-16T15:14:14.572Z,17.0
2023-03-16T15:16:05.169Z,16.8
2023-03-16T15:18:03.613Z,17.1
2023-03-16T15:20:04.844Z,16.6
2023-03-16T15:22:05.258Z,17.0
2023-03-16T15:24:03.938Z,16.5
2023-03-16T15:26:05.285Z,17.1
2023-03-16T15:28:09.819Z,16.8
2023-03-16T15:30:03.660Z,16.8
2023-03-16T15:32:03.186Z,17.1
2023-03-16T15:34:03.494Z,16.6
2023-03-16T15:36:13.937Z,16.7
2023-03-16T15:38:08.354Z,17.7
2023-03-16T15:40:03.330Z,16.8
2023-03-16T15:42:02.949Z,17.0
2023-03-16T15:44:06.046Z,16.8
2023-03-16T15:46:03.696Z,16.8
2023-03-16T15:48:03.144Z,17.0
2023-03-16T15:50:02.958Z,17.1
2023-03-16T15:52:03.947Z,17.5
2023-03-16T15:54:05.552Z,18.4
2023-03-16T15:56:06.168Z,20.4
2023-03-16T15:58:04.827Z,20.5
2023-03-16T16:00:05.022Z,18.8
2023-03-16T16:02:03.650Z,19.9
2023-03-16T16:04:03.064Z,21.6
2023-03-16T16:06:03.350Z,21.0
2023-03-16T16:08:03.772Z,20.7
2023-03-16T16:10:03.192Z,20.5
2023-03-16T16:12:03.558Z,20.3
2023-03-16T16:14:04.323Z,19.3
2023-03-16T16:16:02.957Z,18.7
2023-03-16T16:18:21.296Z,17.8
2023-03-16T16:20:17.943Z,18.2
2023-03-16T16:22:03.942Z,18.0
2023-03-16T16:24:04.054Z,17.3
2023-03-16T16:26:08.755Z,18.4
2023-03-16T16:28:02.978Z,18.0
2023-03-16T16:30:11.589Z,16.8
2023-03-16T16:32:03.330Z,17.1
2023-03-16T16:34:04.548Z,16.5
2023-03-16T16:36:06.090Z,17.6
2023-03-16T16:38:03.033Z,16.5
2023-03-16T16:40:03.171Z,15.7
2023-03-16T16:42:02.952Z,15.8
2023-03-16T16:44:07.878Z,15.2
2023-03-16T16:46:06.774Z,15.4
2023-03-16T16:48:16.934Z,15.2
2023-03-16T16:50:14.098Z,15.5
2023-03-16T16:52:03.447Z,15.1
2023-03-16T16:54:04.523Z,15.1
2023-03-16T16:56:04.279Z,14.5
2023-03-16T16:58:05.970Z,14.3
2023-03-16T17:00:04.896Z,15.0
2023-03-16T17:02:13.554Z,14.7
2023-03-16T17:04:03.861Z,14.0
2023-03-16T17:06:03.027Z,15.0
2023-03-16T17:12:03.405Z,14.2
2023-03-16T17:14:05.075Z,14.1
2023-03-16T17:16:03.027Z,13.2
2023-03-16T17:18:09.463Z,13.2
2023-03-16T17:20:05.447Z,13.2
2023-03-16T17:22:03.659Z,12.8
2023-03-16T17:24:03.348Z,14.0
2023-03-16T17:26:10.663Z,13.7
2023-03-16T17:28:03.347Z,13.7
2023-03-16T17:30:04.016Z,13.1
2023-03-16T17:32:12.714Z,13.1
2023-03-16T17:34:09.375Z,12.6
2023-03-16T17:36:04.073Z,13.0
2023-03-16T17:38:02.872Z,11.9
2023-03-16T17:40:03.111Z,12.6
2023-03-16T17:42:06.607Z,11.6
2023-03-16T17:44:11.014Z,10.6
2023-03-16T17:46:06.974Z,9.1
2023-03-16T17:48:04.873Z,8.5
2023-03-16T17:50:02.939Z,5.0
2023-03-16T17:52:03.135Z,3.8
2023-03-16T17:54:03.827Z,2.7
2023-03-16T17:56:05.016Z,1.5
2023-03-16T17:58:03.084Z,1.4
2023-03-16T18:00:15.314Z,1.4
2023-03-16T18:02:03.074Z,1.4
2023-03-16T18:04:03.538Z,1.4
2023-03-16T18:06:03.267Z,1.8
2023-03-16T18:08:14.093Z,1.4
2023-03-16T18:10:02.883Z,1.3
2023-03-16T18:12:03.695Z,1.3
2023-03-16T18:14:07.125Z,1.4
2023-03-16T18:16:05.376Z,1.2
2023-03-16T18:18:06.777Z,1.2
2023-03-16T18:20:03.268Z,1.3
2023-03-16T18:22:03.299Z,1.4
2023-03-16T18:24:03.233Z,1.2
2023-03-16T18:26:03.976Z,1.2
2023-03-16T18:28:03.934Z,1.4
2023-03-16T18:30:04.952Z,1.4
2023-03-16T18:32:05.228Z,1.2
2023-03-16T18:34:05.599Z,1.3
2023-03-16T18:36:05.015Z,1.3
2023-03-16T18:38:03.241Z,1.3
2023-03-16T18:40:02.843Z,1.3
2023-03-16T18:42:02.891Z,1.2
2023-03-16T18:44:14.366Z,1.2
2023-03-16T18:46:03.204Z,1.3
2023-03-16T18:48:03.477Z,1.3
2023-03-16T18:50:03.705Z,1.5
2023-03-16T18:52:03.954Z,1.3
2023-03-16T18:54:03.092Z,1.5
2023-03-16T18:56:03.151Z,1.5
2023-03-16T18:58:05.993Z,1.5
2023-03-16T19:00:05.455Z,1.4
2023-03-16T19:02:03.634Z,1.4
2023-03-16T19:04:03.159Z,1.7
2023-03-16T19:06:02.955Z,1.4
2023-03-16T19:08:05.261Z,1.5
2023-03-16T19:10:08.117Z,1.7
2023-03-16T19:12:03.677Z,1.6
2023-03-16T19:14:02.988Z,1.7
2023-03-16T19:16:03.886Z,1.5
2023-03-16T19:18:02.957Z,1.6
2023-03-16T19:20:03.937Z,1.9
2023-03-16T19:22:09.601Z,1.5
2023-03-16T19:24:05.201Z,1.6
2023-03-16T19:26:03.169Z,1.5
2023-03-16T19:28:05.273Z,1.6
2023-03-16T19:30:04.100Z,1.7
2023-03-16T19:32:03.808Z,1.7
2023-03-16T19:34:03.022Z,1.6
2023-03-16T19:36:02.936Z,1.5
2023-03-16T19:38:02.948Z,1.6
2023-03-16T19:40:02.923Z,1.6
2023-03-16T19:42:03.436Z,1.6
2023-03-16T19:44:08.428Z,1.7
2023-03-16T19:46:02.906Z,1.6
2023-03-16T19:48:05.625Z,1.7
2023-03-16T19:50:06.445Z,1.9
2023-03-16T19:52:03.048Z,1.5
2023-03-16T19:54:02.947Z,1.8
2023-03-16T19:56:03.681Z,1.7
2023-03-16T19:58:07.167Z,1.7
2023-03-16T20:00:03.618Z,1.8
2023-03-16T20:02:03.846Z,1.7
2023-03-16T20:04:03.883Z,1.6
2023-03-16T20:06:03.423Z,1.6
2023-03-16T20:08:13.720Z,1.6
2023-03-16T20:10:03.132Z,1.6
2023-03-16T20:12:02.884Z,1.7
2023-03-16T20:14:04.950Z,1.7
2023-03-16T20:16:04.400Z,1.8
2023-03-16T20:18:02.968Z,2.1
2023-03-16T20:20:07.505Z,1.7
2023-03-16T20:22:02.888Z,1.8
2023-03-16T20:24:03.920Z,1.9
2023-03-16T20:26:04.317Z,1.8
2023-03-16T20:28:04.801Z,1.9
2023-03-16T20:30:03.431Z,1.8
2023-03-16T20:32:06.671Z,1.8
2023-03-16T20:34:02.949Z,2.1
2023-03-16T20:36:03.132Z,1.8
2023-03-16T20:38:03.559Z,2.0
2023-03-16T20:40:04.667Z,1.9
2023-03-16T20:42:03.470Z,1.9
2023-03-16T20:44:04.512Z,2.1
2023-03-16T20:46:05.376Z,2.0
2023-03-16T20:48:03.326Z,2.0
2023-03-16T20:50:04.188Z,2.0
2023-03-16T20:52:11.648Z,1.7
2023-03-16T20:54:02.859Z,2.0
2023-03-16T20:56:04.089Z,2.0
2023-03-16T20:58:03.818Z,2.0
2023-03-16T21:00:12.919Z,1.9
2023-03-16T21:02:03.926Z,1.8
2023-03-16T21:04:03.486Z,1.8
2023-03-16T21:06:03.370Z,2.0
2023-03-16T21:08:03.182Z,1.9
2023-03-16T21:10:02.955Z,1.8
2023-03-16T21:12:03.664Z,1.8
2023-03-16T21:14:04.822Z,2.0
2023-03-16T21:16:03.997Z,1.9
2023-03-16T21:18:06.933Z,2.0
2023-03-16T21:20:03.169Z,1.8
2023-03-16T21:22:02.832Z,1.8
2023-03-16T21:24:03.561Z,1.8
2023-03-16T21:26:03.463Z,1.8
2023-03-16T21:28:05.212Z,2.2
2023-03-16T21:30:16.398Z,1.7
2023-03-16T21:32:03.659Z,1.8
2023-03-16T21:34:05.243Z,1.9
2023-03-16T21:36:07.809Z,1.9
2023-03-16T21:38:13.845Z,2.1
2023-03-16T21:40:03.125Z,1.7
2023-03-16T21:42:03.054Z,1.8
2023-03-16T21:44:03.285Z,1.9
2023-03-16T21:46:04.424Z,1.8
2023-03-16T21:48:03.110Z,1.8
2023-03-16T21:50:06.905Z,1.5
2023-03-16T21:52:03.200Z,1.8
2023-03-16T21:54:02.911Z,1.7
2023-03-16T21:56:03.144Z,2.0
2023-03-16T21:58:04.255Z,2.0
2023-03-16T22:00:04.656Z,1.9
2023-03-16T22:02:02.947Z,2.0
2023-03-16T22:04:08.278Z,1.7
2023-03-16T22:06:02.940Z,2.0
2023-03-16T22:08:13.058Z,1.9
2023-03-16T22:10:02.859Z,1.9
2023-03-16T22:12:03.518Z,2.0
2023-03-16T22:14:02.983Z,1.9
2023-03-16T22:16:11.925Z,1.8
2023-03-16T22:18:06.483Z,1.8
2023-03-16T22:20:03.769Z,1.9
2023-03-16T22:22:03.147Z,1.8
2023-03-16T22:24:05.405Z,1.9
2023-03-16T22:26:05.116Z,2.0
2023-03-16T22:28:03.579Z,2.0
2023-03-16T22:30:02.974Z,2.0
2023-03-16T22:32:08.098Z,2.0
2023-03-16T22:34:04.518Z,2.1
2023-03-16T22:36:07.816Z,2.0
2023-03-16T22:38:06.095Z,2.0
2023-03-16T22:40:03.748Z,1.9
2023-03-16T22:42:03.746Z,2.1
2023-03-16T22:44:04.393Z,1.9
2023-03-16T22:46:03.074Z,1.8
2023-03-16T22:48:13.248Z,2.0
2023-03-16T22:50:03.570Z,2.1
2023-03-16T22:52:02.887Z,1.9
2023-03-16T22:54:06.608Z,1.9
2023-03-16T22:56:06.553Z,2.2
2023-03-16T22:58:11.816Z,2.1
2023-03-16T23:00:06.545Z,1.9
2023-03-16T23:02:03.442Z,2.0
2023-03-16T23:04:03.218Z,2.0
2023-03-16T23:06:02.715Z,1.9
2023-03-16T23:08:02.896Z,1.8
2023-03-16T23:10:02.437Z,1.8
2023-03-16T23:12:02.860Z,1.9
2023-03-16T23:14:03.661Z,1.9
2023-03-16T23:16:03.526Z,2.3
2023-03-16T23:18:02.437Z,1.9
2023-03-16T23:20:03.825Z,2.0
2023-03-16T23:22:05.402Z,1.9
2023-03-16T23:24:04.519Z,1.9
2023-03-16T23:26:03.751Z,1.9
2023-03-16T23:28:04.155Z,2.0
2023-03-16T23:30:03.236Z,2.1
2023-03-16T23:32:04.096Z,2.1
2023-03-16T23:34:02.714Z,2.0
2023-03-16T23:36:03.292Z,2.1
2023-03-16T23:38:02.689Z,2.0
2023-03-16T23:40:03.479Z,2.0
2023-03-16T23:42:03.472Z,1.9
2023-03-16T23:44:05.281Z,1.9
2023-03-16T23:46:03.580Z,2.0
2023-03-16T23:48:07.134Z,1.9
2023-03-16T23:50:03.510Z,1.9
2023-03-16T23:52:02.561Z,2.1
2023-03-16T23:54:02.660Z,1.7
2023-03-16T23:56:02.846Z,2.0
2023-03-16T23:58:02.451Z,1.9
